Time;durP1;ratioP1;P1;durP2;ratioP2;P2;SDS_P1;SDS_P2;PMS_P1;PMS_P2;Temp;Humidity;BMP_temperature;BMP_pressure;BME280_temperature;BME280_humidity;BME280_pressure;Samples;Min_cycle;Max_cycle;Signal;HPM_P1;HPM_P2
2024/03/25 06:19:21;;;;;;;83.80;32.05;;;;;;;3.40;91.96;95821.41;2091340;27;20551;-63
2024/03/25 06:20:21;;;;;;;168.90;63.07;;;;;;;3.50;91.69;95812.47;2105695;28;20210;-63
2024/03/25 06:25:15;;;;;;;37.10;15.25;;;;;;;3.73;90.17;95827.31;2100255;27;20555;-64
2024/03/25 06:29:06;;;;;;;29.37;11.70;;;;;;;3.91;88.89;95828.47;2067364;27;1214318;-67
2024/03/25 06:36:35;;;;;;;21.90;5.30;;;;;;;4.66;86.56;95839.81;2105726;27;20570;-68
2024/03/25 06:39:48;;;;;;;12.02;5.88;;;;;;;5.03;84.04;95840.28;2090446;27;20579;-68
2024/03/25 06:42:55;;;;;;;22.13;10.15;;;;;;;5.07;83.39;95836.69;2100438;27;20552;-68
2024/03/25 06:45:51;;;;;;;12.57;4.18;;;;;;;5.53;81.67;95849.69;2099128;27;21268;-68
2024/03/25 06:48:46;;;;;;;14.88;7.40;;;;;;;5.66;81.31;95843.16;2085483;28;20570;-68
2024/03/25 06:51:52;;;;;;;16.25;5.60;;;;;;;6.12;79.81;95850.06;2078281;28;20564;-68
2024/03/25 06:52:53;;;;;;;5.67;2.80;;;;;;;6.03;79.42;95857.31;2079694;28;20201;-68
2024/03/25 06:53:54;;;;;;;12.20;3.20;;;;;;;6.28;78.76;95855.50;2073086;28;20708;-68
2024/03/25 06:56:27;;;;;;;8.77;3.30;;;;;;;6.29;77.87;95859.78;2084751;28;20564;-68
2024/03/25 06:57:28;;;;;;;6.57;2.80;;;;;;;6.34;78.19;95858.69;2085864;28;20311;-68
2024/03/25 06:58:29;;;;;;;7.47;3.07;;;;;;;6.51;77.71;95849.38;2070877;28;20265;-68
2024/03/25 06:59:35;;;;;;;12.75;3.00;;;;;;;6.33;77.27;95859.56;2083354;28;20201;-68
2024/03/25 07:00:36;;;;;;;12.63;3.53;;;;;;;6.43;77.48;95854.03;2082594;28;20206;-68
2024/03/25 07:01:37;;;;;;;13.50;3.10;;;;;;;6.60;76.87;95848.16;2066910;28;20237;-68
2024/03/25 07:02:37;;;;;;;11.00;2.90;;;;;;;6.69;75.81;95853.81;2067224;28;20490;-69
2024/03/25 07:03:39;;;;;;;7.43;3.20;;;;;;;6.91;75.42;95859.81;2085694;28;20212;-68
2024/03/25 07:04:39;;;;;;;15.25;3.05;;;;;;;7.08;74.85;95853.91;2084479;28;20205;-68
2024/03/25 07:05:40;;;;;;;11.63;3.40;;;;;;;6.88;74.82;95855.59;2086902;28;20235;-69
2024/03/25 07:06:40;;;;;;;8.60;3.17;;;;;;;7.11;75.30;95864.16;2085984;28;20635;-69
2024/03/25 07:07:41;;;;;;;7.30;2.50;;;;;;;7.30;74.17;95859.88;2081868;28;20220;-69
2024/03/25 07:08:42;;;;;;;7.03;2.73;;;;;;;7.46;73.53;95859.19;2088721;28;20670;-69
2024/03/25 07:09:43;;;;;;;13.03;2.90;;;;;;;7.29;73.25;95858.16;2072078;28;20206;-68
2024/03/25 07:10:44;;;;;;;10.63;2.90;;;;;;;7.46;73.06;95853.97;2073166;28;20261;-69
2024/03/25 07:11:46;;;;;;;8.20;3.60;;;;;;;7.74;73.14;95852.72;2072545;28;20733;-68
2024/03/25 07:12:47;;;;;;;8.98;2.42;;;;;;;7.65;72.48;95854.00;2073251;28;20633;-68
2024/03/25 07:13:47;;;;;;;8.33;2.90;;;;;;;7.58;72.92;95853.44;2088043;28;20615;-69
2024/03/25 07:14:48;;;;;;;12.43;3.40;;;;;;;7.54;73.14;95846.66;2090547;28;20209;-69
2024/03/25 07:15:49;;;;;;;14.23;3.43;;;;;;;7.52;72.38;95843.31;2084492;28;20222;-68
2024/03/25 07:16:49;;;;;;;10.80;3.10;;;;;;;7.60;72.05;95835.16;2081061;28;20223;-68
2024/03/25 07:17:50;;;;;;;11.40;2.80;;;;;;;7.81;71.65;95838.53;2080749;28;20218;-68
2024/03/25 07:18:50;;;;;;;8.80;2.43;;;;;;;7.78;70.71;95830.88;2072488;28;20207;-69
2024/03/25 07:19:52;;;;;;;12.30;2.70;;;;;;;7.82;70.97;95830.66;2072873;28;20213;-69
2024/03/25 07:20:52;;;;;;;11.93;2.67;;;;;;;8.04;70.98;95828.78;2089052;28;20205;-69
2024/03/25 07:21:53;;;;;;;11.30;2.80;;;;;;;8.15;71.04;95821.31;2088954;28;20201;-69
2024/03/25 07:22:56;;;;;;;8.23;3.03;;;;;;;8.45;69.62;95833.78;2081317;28;20218;-68
2024/03/25 07:23:57;;;;;;;7.97;2.53;;;;;;;8.69;69.15;95830.91;2073767;28;20215;-69
2024/03/25 07:24:57;;;;;;;7.70;2.40;;;;;;;8.72;68.33;95835.94;2072916;28;20306;-69
2024/03/25 07:25:58;;;;;;;10.00;2.60;;;;;;;9.10;67.37;95830.56;2075526;28;20590;-69
2024/03/25 07:26:58;;;;;;;5.23;2.50;;;;;;;9.15;66.36;95836.38;2074168;28;20274;-68
2024/03/25 07:27:59;;;;;;;8.47;2.50;;;;;;;9.12;66.43;95833.94;2073937;28;20227;-69
2024/03/25 07:28:59;;;;;;;7.60;2.60;;;;;;;9.41;65.53;95832.41;2082000;28;20254;-68
2024/03/25 07:30:00;;;;;;;11.00;2.70;;;;;;;9.39;65.49;95831.63;2074933;28;20252;-69
2024/03/25 07:31:00;;;;;;;14.27;3.27;;;;;;;9.26;64.46;95828.84;2074137;28;20202;-68
2024/03/25 07:32:01;;;;;;;8.20;2.47;;;;;;;8.89;65.15;95828.13;2064556;28;21269;-68
2024/03/25 07:33:01;;;;;;;15.03;3.10;;;;;;;8.61;65.00;95829.53;2074868;28;20689;-68
2024/03/25 07:34:02;;;;;;;11.90;2.53;;;;;;;8.53;66.32;95825.63;2085670;28;20268;-69
2024/03/25 07:35:04;;;;;;;5.90;2.40;;;;;;;8.50;67.27;95824.00;2077580;28;20332;-67
2024/03/25 07:36:05;;;;;;;8.48;2.55;;;;;;;8.87;66.76;95822.16;2089855;28;20223;-69
2024/03/25 07:37:05;;;;;;;7.50;2.50;;;;;;;9.35;65.09;95824.91;2091065;28;20220;-69
2024/03/25 07:38:06;;;;;;;8.83;2.40;;;;;;;9.61;64.80;95828.75;2082942;28;20277;-68
2024/03/25 07:39:07;;;;;;;9.00;2.07;;;;;;;9.39;64.24;95828.19;2072709;28;20224;-68
2024/03/25 07:40:14;;;;;;;6.78;2.22;;;;;;;9.46;63.92;95821.75;2073739;28;20206;-69
2024/03/25 07:41:15;;;;;;;8.85;2.70;;;;;;;9.52;63.47;95820.56;2078090;28;20618;-69
2024/03/25 07:42:15;;;;;;;6.40;2.20;;;;;;;9.64;63.81;95825.94;2076834;28;20217;-69
2024/03/25 07:43:16;;;;;;;5.37;2.20;;;;;;;9.44;63.08;95811.38;2073253;28;20562;-69
2024/03/25 07:44:17;;;;;;;10.48;2.08;;;;;;;9.86;62.17;95819.56;2066134;28;20288;-69
2024/03/25 07:45:17;;;;;;;6.17;1.73;;;;;;;9.70;59.97;95816.13;2074282;28;20455;-69
2024/03/25 07:46:18;;;;;;;5.50;2.20;;;;;;;9.44;60.77;95813.97;2080031;28;20239;-69
2024/03/25 07:47:19;;;;;;;5.33;1.63;;;;;;;9.88;60.47;95815.13;2068308;28;20231;-69
2024/03/25 07:48:19;;;;;;;9.00;2.43;;;;;;;9.86;60.09;95811.75;2068610;28;20614;-69
2024/03/25 07:49:20;;;;;;;6.87;2.70;;;;;;;10.48;59.73;95810.09;2074081;28;20207;-69
2024/03/25 07:50:21;;;;;;;9.30;1.93;;;;;;;10.62;58.84;95808.34;2073990;28;20281;-69
2024/03/25 07:51:22;;;;;;;7.18;2.03;;;;;;;10.48;59.17;95821.38;2072908;28;20601;-69
2024/03/25 07:52:22;;;;;;;7.00;1.70;;;;;;;10.33;59.04;95817.00;2081604;28;20748;-69
2024/03/25 07:53:23;;;;;;;10.57;2.40;;;;;;;10.69;59.00;95818.44;2082017;28;20444;-71
2024/03/25 07:54:23;;;;;;;9.20;2.50;;;;;;;10.65;58.19;95816.94;2072501;28;20203;-69
2024/03/25 07:55:24;;;;;;;4.60;1.83;;;;;;;10.87;58.77;95821.75;2090332;28;20202;-69
2024/03/25 07:56:24;;;;;;;4.40;1.67;;;;;;;10.90;57.25;95821.59;2093471;28;20232;-69
2024/03/25 07:57:25;;;;;;;7.90;1.83;;;;;;;10.56;57.58;95821.78;2076853;28;20284;-69
2024/03/25 07:58:26;;;;;;;7.40;2.07;;;;;;;10.94;57.02;95815.25;2073778;28;20839;-70
2024/03/25 07:59:26;;;;;;;5.83;1.83;;;;;;;10.92;57.40;95814.50;2073298;28;20210;-69
2024/03/25 08:00:26;;;;;;;4.13;1.60;;;;;;;10.20;58.37;95822.91;2065491;28;20269;-69
2024/03/25 08:01:27;;;;;;;5.87;1.60;;;;;;;9.33;59.18;95824.13;2068040;28;20203;-68
2024/03/25 08:02:28;;;;;;;5.30;1.53;;;;;;;9.36;60.20;95836.16;2070137;28;20819;-67
2024/03/25 08:03:28;;;;;;;10.03;2.23;;;;;;;9.74;59.81;95823.69;2068932;28;20199;-67
2024/03/25 08:04:29;;;;;;;7.50;1.80;;;;;;;10.21;58.92;95837.66;2069278;28;20207;-67
2024/03/25 08:05:30;;;;;;;3.70;1.60;;;;;;;10.45;57.73;95829.41;2088700;28;20233;-67
2024/03/25 08:06:30;;;;;;;9.30;2.15;;;;;;;10.86;57.87;95833.97;2088353;28;20211;-67
2024/03/25 08:07:31;;;;;;;4.70;1.60;;;;;;;11.03;56.57;95830.34;2066414;28;20281;-67
2024/03/25 08:08:32;;;;;;;9.30;1.65;;;;;;;10.61;57.21;95831.94;2068615;28;20226;-67
2024/03/25 08:09:33;;;;;;;17.60;3.10;;;;;;;10.65;56.68;95827.41;2067141;28;20199;-67
2024/03/25 08:10:34;;;;;;;5.00;1.90;;;;;;;10.98;56.73;95821.94;2066462;28;20237;-68
2024/03/25 08:11:34;;;;;;;8.23;1.80;;;;;;;10.61;56.77;95821.50;2065654;28;20453;-69
2024/03/25 08:12:34;;;;;;;6.50;1.97;;;;;;;10.94;57.19;95823.94;2069996;28;20228;-69
2024/03/25 08:13:35;;;;;;;2.90;1.27;;;;;;;11.28;56.59;95821.88;2071501;28;20221;-69
2024/03/25 08:14:35;;;;;;;5.23;1.40;;;;;;;11.82;55.15;95815.16;2084069;28;20208;-70
2024/03/25 08:15:37;;;;;;;7.00;1.53;;;;;;;12.23;53.90;95811.69;2076679;28;20202;-70
2024/03/25 08:16:38;;;;;;;5.38;1.48;;;;;;;11.69;54.33;95814.22;2063656;28;20537;-70
2024/03/25 08:17:38;;;;;;;5.88;1.75;;;;;;;11.33;53.88;95812.94;2070792;28;20218;-69
2024/03/25 08:18:39;;;;;;;7.50;1.70;;;;;;;11.18;55.11;95812.09;2071696;28;20202;-70
2024/03/25 08:19:41;;;;;;;7.03;1.83;;;;;;;10.87;56.25;95808.69;2075983;28;20410;-69
2024/03/25 08:20:41;;;;;;;10.52;2.03;;;;;;;11.16;55.69;95790.44;2051180;28;20208;-69
2024/03/25 08:21:42;;;;;;;7.80;2.30;;;;;;;11.58;54.90;95791.38;2050639;28;20307;-70
2024/03/25 08:22:43;;;;;;;7.53;1.73;;;;;;;11.53;54.31;95798.63;2068026;28;20254;-70
2024/03/25 08:23:45;;;;;;;7.47;2.40;;;;;;;11.96;53.38;95795.13;2066013;28;20225;-69
2024/03/25 08:24:46;;;;;;;9.15;2.10;;;;;;;12.11;53.83;95806.41;2065155;28;20214;-70
2024/03/25 08:25:46;;;;;;;5.37;2.03;;;;;;;11.95;53.27;95801.25;2070486;28;20763;-69
2024/03/25 08:26:47;;;;;;;9.57;1.60;;;;;;;12.39;53.14;95800.22;2070249;28;20203;-69
2024/03/25 08:27:49;;;;;;;6.05;1.95;;;;;;;12.46;52.61;95798.88;2068382;28;20202;-69
2024/03/25 08:28:49;;;;;;;4.43;1.70;;;;;;;12.64;52.59;95801.22;2059115;28;20707;-70
2024/03/25 08:29:53;;;;;;;7.10;2.10;;;;;;;12.68;52.83;95797.47;2069388;28;20210;-70
2024/03/25 08:30:53;;;;;;;4.47;1.55;;;;;;;12.31;52.59;95786.81;2081324;28;20303;-70
2024/03/25 08:31:54;;;;;;;3.47;1.37;;;;;;;12.23;53.33;95797.78;2084566;28;20639;-67
2024/03/25 08:32:54;;;;;;;7.50;1.50;;;;;;;11.83;55.47;95797.66;2083973;28;20301;-68
2024/03/25 08:33:55;;;;;;;6.20;1.43;;;;;;;11.69;55.27;95786.28;2084604;28;20279;-68
2024/03/25 08:34:56;;;;;;;5.50;1.70;;;;;;;11.74;55.23;95799.06;2068106;28;20215;-68
2024/03/25 08:35:56;;;;;;;7.00;1.73;;;;;;;12.16;54.21;95794.69;2061696;28;20227;-68
2024/03/25 08:36:57;;;;;;;6.73;1.70;;;;;;;12.71;53.92;95799.88;2060092;28;20210;-69
2024/03/25 08:37:57;;;;;;;4.53;1.33;;;;;;;13.12;53.13;95790.16;2079641;28;20209;-69
2024/03/25 08:38:58;;;;;;;8.73;1.83;;;;;;;13.99;52.37;95796.34;2075993;28;20255;-67
2024/03/25 08:39:58;;;;;;;5.83;1.73;;;;;;;14.29;50.40;95792.44;2070909;28;20206;-67
2024/03/25 08:40:59;;;;;;;6.53;1.30;;;;;;;14.33;49.26;95785.16;2071483;28;20210;-68
2024/03/25 08:41:59;;;;;;;6.70;1.50;;;;;;;13.22;50.06;95799.06;2060766;28;20204;-68
2024/03/25 08:43:00;;;;;;;5.43;1.60;;;;;;;12.55;51.58;95793.03;2067659;28;20202;-68
2024/03/25 08:44:00;;;;;;;4.07;1.40;;;;;;;11.62;52.23;95797.22;2085323;28;20201;-68
2024/03/25 08:45:01;;;;;;;3.60;1.53;;;;;;;11.61;53.29;95796.41;2081835;28;20202;-68
2024/03/25 08:46:03;;;;;;;3.83;1.10;;;;;;;11.39;51.99;95799.50;2068547;28;20196;-68
2024/03/25 08:47:04;;;;;;;6.03;1.42;;;;;;;11.00;53.16;95791.38;2067668;28;20475;-68
2024/03/25 08:48:04;;;;;;;4.70;1.30;;;;;;;10.53;54.59;95801.06;2069745;28;20305;-69
2024/03/25 08:49:05;;;;;;;3.90;1.47;;;;;;;10.44;54.80;95797.22;2071216;28;20233;-68
2024/03/25 08:50:06;;;;;;;5.67;1.47;;;;;;;10.30;55.25;95800.59;2071889;28;20448;-68
2024/03/25 08:51:07;;;;;;;8.13;1.20;;;;;;;10.15;54.43;95793.63;2067299;28;20207;-68
2024/03/25 08:52:08;;;;;;;10.50;1.37;;;;;;;10.32;55.39;95790.06;2069256;28;20219;-68
2024/03/25 08:53:09;;;;;;;4.00;1.08;;;;;;;10.18;55.24;95798.66;2071566;28;20214;-68
2024/03/25 08:54:09;;;;;;;5.17;1.40;;;;;;;9.77;56.27;95794.00;2067417;28;20202;-68
2024/03/25 08:55:11;;;;;;;5.83;1.40;;;;;;;9.40;56.20;95793.41;2067119;28;20253;-68
2024/03/25 08:56:11;;;;;;;8.30;1.58;;;;;;;9.09;56.78;95795.00;2071565;28;20357;-68
2024/03/25 08:57:12;;;;;;;4.60;1.37;;;;;;;8.14;58.99;95791.06;2063310;28;20475;-67
2024/03/25 08:58:13;;;;;;;9.50;1.63;;;;;;;8.25;59.05;95791.38;2065053;28;20210;-68
2024/03/25 08:59:14;;;;;;;11.38;1.48;;;;;;;8.38;58.83;95789.00;2082598;28;20236;-68
2024/03/25 09:00:15;;;;;;;8.50;1.83;;;;;;;8.46;58.49;95786.88;2082586;28;20683;-68
2024/03/25 09:01:16;;;;;;;8.48;1.38;;;;;;;8.28;59.20;95783.41;2074365;28;20214;-67
2024/03/25 09:02:17;;;;;;;6.57;1.23;;;;;;;8.08;58.38;95779.19;2072283;28;20286;-67
2024/03/25 09:03:17;;;;;;;5.38;1.85;;;;;;;8.13;59.29;95781.56;2073314;28;20450;-68
2024/03/25 09:04:18;;;;;;;3.93;1.07;;;;;;;7.97;57.90;95787.50;2070091;28;20202;-71
2024/03/25 09:05:20;;;;;;;5.35;1.10;;;;;;;7.90;57.59;95783.50;2069800;28;20220;-71
2024/03/25 09:06:21;;;;;;;7.40;2.20;;;;;;;8.03;56.41;95782.94;2071261;28;20823;-71
2024/03/25 09:07:25;;;;;;;7.43;1.33;;;;;;;7.75;56.87;95782.47;2071360;28;20226;-71
2024/03/25 09:08:26;;;;;;;3.92;1.23;;;;;;;7.97;58.40;95774.53;2078007;28;20217;-72
2024/03/25 09:11:07;;;;;;;3.70;1.05;;;;;;;7.93;58.01;95778.16;2061396;28;20221;-72
2024/03/25 09:12:07;;;;;;;5.25;1.23;;;;;;;8.15;59.04;95775.38;2067287;28;20223;-72
2024/03/25 09:13:08;;;;;;;5.22;1.42;;;;;;;8.38;60.02;95770.81;2071946;28;20246;-72
2024/03/25 09:14:09;;;;;;;5.53;1.47;;;;;;;8.64;59.77;95766.91;2073215;28;20211;-72
2024/03/25 09:15:09;;;;;;;5.17;1.40;;;;;;;8.56;57.66;95779.47;2068505;28;20208;-72
2024/03/25 09:16:11;;;;;;;5.40;1.20;;;;;;;8.38;58.40;95782.94;2073682;28;20621;-73
2024/03/25 09:17:12;;;;;;;4.00;1.27;;;;;;;8.47;56.27;95780.78;2073630;28;20492;-73
2024/03/25 09:18:13;;;;;;;2.85;1.10;;;;;;;8.81;55.06;95784.28;2073350;28;20214;-71
2024/03/25 09:19:13;;;;;;;4.90;1.53;;;;;;;8.44;55.93;95778.31;2080538;28;20207;-70
2024/03/25 09:20:17;;;;;;;5.80;1.30;;;;;;;8.58;54.78;95782.00;2079243;28;20208;-70
2024/03/25 09:21:17;;;;;;;4.35;1.15;;;;;;;9.09;54.94;95777.63;2063729;28;20208;-69
2024/03/25 09:22:18;;;;;;;6.00;1.33;;;;;;;9.78;53.68;95780.88;2068282;28;20236;-72
2024/03/25 09:23:18;;;;;;;3.33;1.30;;;;;;;9.73;53.57;95772.47;2076069;28;20348;-71
2024/03/25 09:24:19;;;;;;;4.20;1.50;;;;;;;9.88;53.30;95770.78;2079728;28;20206;-71
2024/03/25 09:25:20;;;;;;;4.10;1.17;;;;;;;9.52;53.77;95769.25;2069391;28;20320;-71
2024/03/25 09:26:20;;;;;;;4.80;1.00;;;;;;;9.70;56.01;95770.03;2077458;28;20202;-70
2024/03/25 09:27:21;;;;;;;3.20;1.20;;;;;;;10.56;53.18;95760.88;2087286;28;20442;-71
2024/03/25 09:28:21;;;;;;;9.20;1.30;;;;;;;9.90;52.69;95760.25;2090534;28;20312;-70
2024/03/25 09:29:21;;;;;;;7.40;1.20;;;;;;;10.50;54.48;95761.25;2072028;28;20214;-71
2024/03/25 09:30:22;;;;;;;5.97;1.00;;;;;;;10.42;52.34;95759.09;2078726;28;20296;-72
2024/03/25 09:31:23;;;;;;;4.40;1.13;;;;;;;10.62;53.23;95756.13;2080791;28;20250;-72
2024/03/25 09:32:25;;;;;;;8.90;1.00;;;;;;;10.73;51.27;95745.06;2071864;28;20229;-71
2024/03/25 09:33:26;;;;;;;4.75;1.25;;;;;;;10.37;52.40;95748.91;2080611;28;20688;-71
2024/03/25 09:34:26;;;;;;;2.80;0.90;;;;;;;11.06;53.10;95743.16;2081172;28;20236;-71
2024/03/25 09:35:27;;;;;;;8.57;1.43;;;;;;;11.39;51.65;95737.59;2071388;28;20428;-71
2024/03/25 09:36:27;;;;;;;5.17;1.40;;;;;;;11.63;51.31;95747.47;2070983;28;20285;-71
2024/03/25 09:37:29;;;;;;;8.73;1.60;;;;;;;9.49;54.19;95740.78;2071802;28;20539;-71
2024/03/25 09:38:29;;;;;;;13.35;2.10;;;;;;;8.82;55.21;95740.84;2070501;28;20219;-71
2024/03/25 09:39:30;;;;;;;7.37;1.23;;;;;;;8.78;55.88;95747.97;2086502;28;20258;-71
2024/03/25 09:40:30;;;;;;;6.60;1.50;;;;;;;8.63;56.04;95754.81;2085947;28;20210;-71
2024/03/25 09:41:35;;;;;;;4.53;1.37;;;;;;;8.86;55.34;95734.53;2069162;28;20255;-71
2024/03/25 09:42:47;;;;;;;5.90;1.75;;;;;;;9.40;56.19;95749.09;2071124;28;20571;-71
2024/03/25 09:43:51;;;;;;;6.68;1.40;;;;;;;9.91;54.36;95739.31;2072793;28;20239;-72
2024/03/25 09:44:56;;;;;;;7.40;1.90;;;;;;;10.13;54.45;95743.31;2072318;28;20211;-71
2024/03/25 09:45:58;;;;;;;4.25;1.60;;;;;;;10.34;53.00;95743.03;2067916;28;20203;-72
2024/03/25 09:47:00;;;;;;;1.85;0.98;;;;;;;10.31;52.43;95731.00;2075953;28;20217;-71
2024/03/25 09:48:04;;;;;;;10.88;1.50;;;;;;;9.92;53.58;95730.56;2079605;28;20202;-71
2024/03/25 09:49:05;;;;;;;6.28;1.42;;;;;;;10.16;53.92;95729.25;2068682;28;20456;-71
2024/03/25 09:50:08;;;;;;;18.77;2.40;;;;;;;9.73;55.10;95742.97;2076725;28;20214;-71
2024/03/25 09:51:11;;;;;;;9.05;1.70;;;;;;;10.19;55.61;95726.47;2078228;28;20422;-71
2024/03/25 09:52:12;;;;;;;6.20;1.35;;;;;;;10.66;54.93;95738.53;2069313;28;20593;-71
2024/03/25 09:53:13;;;;;;;3.90;1.40;;;;;;;10.39;53.80;95738.41;2077186;28;20221;-72
2024/03/25 09:54:13;;;;;;;5.20;1.33;;;;;;;10.23;55.71;95730.56;2074160;28;20221;-71
2024/03/25 09:55:14;;;;;;;3.60;1.20;;;;;;;9.60;56.49;95735.81;2067302;28;20221;-72
2024/03/25 09:56:15;;;;;;;9.00;1.47;;;;;;;10.13;54.90;95727.66;2068018;28;20261;-72
2024/03/25 09:57:16;;;;;;;7.73;1.50;;;;;;;10.50;55.13;95727.31;2071482;28;20542;-72
2024/03/25 09:58:19;;;;;;;4.45;1.50;;;;;;;11.01;52.64;95725.13;2084316;28;20471;-72
2024/03/25 09:59:20;;;;;;;6.15;1.10;;;;;;;11.20;50.94;95717.00;2085278;28;20200;-72
2024/03/25 10:00:20;;;;;;;3.67;1.10;;;;;;;11.79;51.49;95720.34;2069564;28;20653;-72
2024/03/25 10:01:21;;;;;;;5.10;1.20;;;;;;;11.63;49.54;95721.31;2065727;28;20524;-73
2024/03/25 10:02:26;;;;;;;4.73;1.50;;;;;;;10.61;51.03;95714.47;2060241;28;20224;-72
2024/03/25 10:03:27;;;;;;;8.40;1.40;;;;;;;12.35;52.21;95714.97;2064171;28;20215;-72
2024/03/25 10:04:28;;;;;;;7.45;1.70;;;;;;;11.82;49.40;95709.66;2070993;28;20664;-72
2024/03/25 10:05:29;;;;;;;3.67;1.27;;;;;;;10.78;51.90;95693.41;2068144;28;20282;-72
2024/03/25 10:06:29;;;;;;;4.23;1.27;;;;;;;11.96;51.12;95701.81;2068482;28;20253;-72
2024/03/25 10:07:30;;;;;;;3.70;1.43;;;;;;;11.84;50.36;95702.56;2069802;28;20227;-72
2024/03/25 10:08:30;;;;;;;9.20;1.63;;;;;;;12.13;50.85;95700.69;2069507;28;20210;-72
2024/03/25 10:09:31;;;;;;;8.53;1.20;;;;;;;12.42;49.14;95695.31;2068601;28;20201;-72
2024/03/25 10:10:34;;;;;;;6.90;1.30;;;;;;;11.30;51.34;95698.13;2066126;28;20277;-72
2024/03/25 10:11:35;;;;;;;4.03;1.52;;;;;;;10.39;52.56;95700.09;2083677;28;20202;-73
2024/03/25 10:12:36;;;;;;;3.90;1.40;;;;;;;8.99;52.87;95709.56;2080645;28;20563;-72
2024/03/25 10:13:37;;;;;;;4.45;1.70;;;;;;;8.73;54.93;95704.88;2076687;28;20449;-71
2024/03/25 10:14:40;;;;;;;9.27;1.38;;;;;;;8.33;56.96;95711.19;2066011;28;20215;-71
2024/03/25 10:15:40;;;;;;;8.15;1.50;;;;;;;8.16;55.70;95712.06;2066933;28;20199;-71
2024/03/25 10:16:41;;;;;;;5.57;1.10;;;;;;;8.69;55.50;95695.56;2067005;28;20228;-72
2024/03/25 10:17:42;;;;;;;3.50;1.47;;;;;;;8.91;55.17;95698.72;2066549;28;20314;-72
2024/03/25 10:18:42;;;;;;;7.70;1.67;;;;;;;9.12;54.44;95699.31;2066794;28;20281;-72
2024/03/25 10:19:43;;;;;;;8.83;1.80;;;;;;;9.01;55.06;95695.63;2067128;28;20447;-72
2024/03/25 10:20:50;;;;;;;5.50;1.83;;;;;;;9.09;55.44;95698.63;2058228;28;20282;-72
2024/03/25 10:22:01;;;;;;;6.03;1.73;;;;;;;9.48;54.60;95690.44;2074758;28;20210;-71
2024/03/25 10:23:02;;;;;;;5.93;1.83;;;;;;;9.35;54.34;95696.41;2085822;28;20205;-72
2024/03/25 10:24:05;;;;;;;3.77;1.23;;;;;;;9.03;53.54;95697.22;2071184;28;20202;-72
2024/03/25 10:25:07;;;;;;;6.00;1.30;;;;;;;9.03;54.51;95685.94;2071181;28;20804;-71
2024/03/25 10:26:08;;;;;;;6.18;1.20;;;;;;;9.47;55.39;95690.50;2071218;28;20203;-71
2024/03/25 10:27:22;;;;;;;5.17;1.53;;;;;;;10.64;51.00;95676.91;2066115;28;20270;-71
2024/03/25 10:28:23;;;;;;;5.90;1.50;;;;;;;10.34;49.30;95678.59;2066793;28;20202;-71
2024/03/25 10:29:24;;;;;;;6.17;1.40;;;;;;;11.86;48.49;95674.50;2066744;28;20207;-71
2024/03/25 10:30:29;;;;;;;4.80;1.38;;;;;;;12.17;46.75;95670.75;2066032;28;20217;-71
2024/03/25 10:31:29;;;;;;;2.80;1.30;;;;;;;11.48;47.42;95678.69;2066252;28;20211;-71
2024/03/25 10:32:30;;;;;;;10.40;1.58;;;;;;;11.31;49.48;95679.72;2064311;28;20219;-71
2024/03/25 10:33:30;;;;;;;5.63;1.67;;;;;;;11.37;50.67;95665.44;2065228;28;20216;-71
2024/03/25 10:34:31;;;;;;;5.20;1.40;;;;;;;11.48;50.12;95670.84;2057965;28;20206;-71
2024/03/25 10:35:37;;;;;;;12.23;1.57;;;;;;;11.55;49.72;95669.50;2060895;28;20211;-73
2024/03/25 10:36:37;;;;;;;3.78;1.20;;;;;;;11.89;49.86;95661.25;2069155;28;20684;-73
2024/03/25 10:37:39;;;;;;;2.37;1.20;;;;;;;11.71;48.82;95666.72;2066082;28;20611;-73
2024/03/25 10:38:40;;;;;;;7.03;1.40;;;;;;;11.79;48.55;95674.06;2070651;28;20209;-73
2024/03/25 10:39:50;;;;;;;4.72;1.30;;;;;;;11.72;47.92;95670.22;2071490;28;20432;-71
2024/03/25 10:40:54;;;;;;;8.15;1.48;;;;;;;12.70;47.30;95669.84;2071988;28;20210;-71
2024/03/25 10:42:04;;;;;;;5.18;1.20;;;;;;;12.57;46.57;95675.09;2066112;28;20233;-71
2024/03/25 10:43:13;;;;;;;3.65;1.30;;;;;;;11.55;47.52;95666.91;2072170;28;20578;-70
2024/03/25 10:44:14;;;;;;;4.65;1.35;;;;;;;11.35;48.13;95665.56;2068102;28;20207;-71
2024/03/25 10:45:15;;;;;;;3.05;1.20;;;;;;;11.31;49.05;95668.44;2082714;28;20205;-71
2024/03/25 10:46:22;;;;;;;5.43;1.60;;;;;;;12.25;49.15;95665.84;2082875;28;20209;-71
2024/03/25 10:47:28;;;;;;;4.65;1.08;;;;;;;12.31;48.04;95658.53;2067346;28;20268;-71
2024/03/25 10:48:34;;;;;;;3.35;1.00;;;;;;;10.94;48.75;95655.91;2068163;28;20217;-71
2024/03/25 10:49:49;;;;;;;3.97;1.52;;;;;;;9.77;51.87;95659.25;2076168;28;20208;-71
2024/03/25 10:50:51;;;;;;;5.28;1.40;;;;;;;9.59;51.92;95663.75;2068310;28;20213;-71
2024/03/25 10:51:53;;;;;;;4.43;1.27;;;;;;;9.85;52.71;95658.00;2075503;28;20594;-71
2024/03/25 10:52:56;;;;;;;5.78;1.35;;;;;;;10.14;52.99;95656.28;2075594;28;20239;-71
2024/03/25 10:53:58;;;;;;;6.13;1.40;;;;;;;9.75;52.60;95649.84;2069762;28;20660;-71
2024/03/25 10:54:59;;;;;;;6.68;1.60;;;;;;;9.24;54.64;95661.38;2070950;28;20730;-71
2024/03/25 10:56:01;;;;;;;7.03;1.40;;;;;;;9.40;54.32;95650.09;2073541;28;20621;-71
2024/03/25 10:57:03;;;;;;;12.50;1.60;;;;;;;9.46;54.22;95653.19;2064694;28;20778;-71
2024/03/25 10:58:06;;;;;;;4.05;1.20;;;;;;;9.44;54.43;95646.38;2082733;28;20203;-71
2024/03/25 10:59:08;;;;;;;4.15;1.45;;;;;;;9.19;53.92;95647.72;2085664;28;20210;-71
2024/03/25 11:00:14;;;;;;;5.35;1.50;;;;;;;9.23;54.19;95656.22;2070802;28;20253;-70
2024/03/25 11:01:18;;;;;;;5.18;1.27;;;;;;;8.84;55.49;95650.50;2073620;28;20645;-71
2024/03/25 11:02:20;;;;;;;4.05;1.88;;;;;;;8.91;55.57;95641.44;2081352;28;20247;-70
2024/03/25 11:03:22;;;;;;;5.13;1.20;;;;;;;9.59;52.79;95631.66;2075696;28;20228;-70
2024/03/25 11:04:24;;;;;;;6.35;1.45;;;;;;;9.88;53.23;95643.00;2067342;28;20199;-70
2024/03/25 11:05:25;;;;;;;7.47;1.55;;;;;;;10.42;52.60;95639.88;2084921;28;20536;-70
2024/03/25 11:06:26;;;;;;;5.30;1.55;;;;;;;10.59;50.67;95631.03;2080923;28;20395;-71
2024/03/25 11:07:31;;;;;;;6.70;1.43;;;;;;;9.36;51.75;95643.34;2064029;28;20247;-71
2024/03/25 11:08:32;;;;;;;3.58;1.50;;;;;;;9.97;53.15;95641.63;2071124;28;20288;-70
2024/03/25 11:09:32;;;;;;;6.00;1.13;;;;;;;9.80;51.95;95633.03;2087071;28;20294;-71
2024/03/25 11:10:33;;;;;;;3.60;1.23;;;;;;;9.51;51.43;95631.22;2085094;28;20213;-71
2024/03/25 11:11:34;;;;;;;4.07;1.40;;;;;;;9.55;52.46;95624.91;2068266;28;20206;-71
2024/03/25 11:12:36;;;;;;;5.27;1.37;;;;;;;9.45;53.48;95627.22;2066183;28;20291;-71
2024/03/25 11:13:38;;;;;;;4.88;1.30;;;;;;;10.06;53.95;95617.63;2083524;28;20826;-71
2024/03/25 11:14:39;;;;;;;5.43;1.52;;;;;;;10.61;52.81;95616.13;2074161;28;20512;-71
2024/03/25 11:15:44;;;;;;;9.35;1.35;;;;;;;10.94;52.98;95614.97;2059926;28;20196;-71
2024/03/25 11:16:52;;;;;;;6.63;1.30;;;;;;;11.01;52.75;95609.34;2067865;28;20229;-71
2024/03/25 11:17:52;;;;;;;6.10;1.10;;;;;;;10.92;53.14;95611.59;2072629;28;20228;-71
2024/03/25 11:18:53;;;;;;;3.10;1.10;;;;;;;10.97;53.73;95581.72;2066537;28;20268;-70
2024/03/25 11:19:54;;;;;;;6.60;1.90;;;;;;;11.49;53.73;95608.91;2073564;28;20267;-71
2024/03/25 11:21:05;;;;;;;3.70;1.20;;;;;;;11.47;52.82;95608.19;2066698;28;20635;-71
2024/03/25 11:22:10;;;;;;;8.23;1.40;;;;;;;11.59;52.95;95607.38;2066432;28;20213;-71
2024/03/25 11:23:12;;;;;;;3.90;1.42;;;;;;;13.07;51.23;95601.78;2066750;28;20217;-71
2024/03/25 11:24:13;;;;;;;6.25;1.58;;;;;;;12.70;51.21;95601.75;2067715;28;20206;-71
2024/03/25 11:25:14;;;;;;;3.23;1.20;;;;;;;12.73;50.90;95596.28;2065627;28;20220;-71
2024/03/25 11:26:24;;;;;;;8.75;1.10;;;;;;;12.83;50.23;95594.69;2066106;28;20202;-71
2024/03/25 11:27:26;;;;;;;5.55;1.30;;;;;;;13.45;49.10;95582.47;2067877;28;20443;-71
2024/03/25 11:28:28;;;;;;;6.50;1.50;;;;;;;13.26;49.39;95588.19;2068958;28;20273;-71
2024/03/25 11:29:30;;;;;;;3.22;1.33;;;;;;;12.88;49.08;95594.38;2067584;28;20281;-70
2024/03/25 11:30:31;;;;;;;8.05;1.60;;;;;;;12.37;50.38;95577.78;2060429;28;20210;-71
2024/03/25 11:31:33;;;;;;;8.43;1.50;;;;;;;12.57;50.95;95586.91;2075913;28;20591;-71
2024/03/25 11:32:52;;;;;;;4.10;1.55;;;;;;;12.66;50.15;95582.81;2082118;28;20225;-71
2024/03/25 11:33:56;;;;;;;3.70;0.90;;;;;;;13.05;50.63;95585.31;2081230;28;20610;-71
2024/03/25 11:34:57;;;;;;;5.97;1.30;;;;;;;14.81;47.86;95576.69;2079441;28;20202;-71
2024/03/25 11:35:57;;;;;;;9.07;1.73;;;;;;;15.63;46.28;95573.63;2066539;28;20207;-71
2024/03/25 11:36:58;;;;;;;4.40;1.73;;;;;;;16.09;44.84;95570.81;2064877;28;20207;-71